Time;durP1;ratioP1;P1;durP2;ratioP2;P2;SDS_P1;SDS_P2;PMS_P1;PMS_P2;Temp;Humidity;BMP_temperature;BMP_pressure;BME280_temperature;BME280_humidity;BME280_pressure;Samples;Min_cycle;Max_cycle;Signal;HPM_P1;HPM_P2
2021/10/28 00:13:01;;;;;;;;;;;;;;;;;;5054367;28;19943;-92
2021/10/28 00:15:32;;;;;;;;;;;;;;;;;;5055332;28;19933;-94
2021/10/28 00:18:12;;;;;;;;;;;;;;;;;;5055899;28;19929;-92
2021/10/28 00:20:42;;;;;;;;;;;;;;;;;;5071755;28;19923;-92
2021/10/28 00:23:10;;;;;;;;;;;;;;;;;;5075434;28;19913;-93
2021/10/28 00:25:39;;;;;;;;;;;;;;;;;;5053677;28;19909;-91
2021/10/28 00:28:09;;;;;;;;;;;;;;;;;;5072527;28;19917;-93
2021/10/28 00:30:38;;;;;;;;;;;;;;;;;;5072699;28;19936;-91
2021/10/28 00:33:06;;;;;;;;;;;;;;;;;;5040146;28;19923;-94
2021/10/28 00:35:35;;;;;;;;;;;;;;;;;;5058654;28;19924;-92
2021/10/28 00:38:05;;;;;;;;;;;;;;;;;;5065771;28;19933;-91
2021/10/28 00:40:33;;;;;;;;;;;;;;;;;;5040957;28;19923;-93
2021/10/28 00:43:02;;;;;;;;;;;;;;;;;;5037241;28;19921;-93
2021/10/28 00:45:31;;;;;;;;;;;;;;;;;;5061271;28;19913;-93
2021/10/28 00:48:00;;;;;;;;;;;;;;;;;;5072797;28;19913;-92
2021/10/28 00:50:28;;;;;;;;;;;;;;;;;;5074359;28;19995;-94
2021/10/28 00:52:56;;;;;;;;;;;;;;;;;;5068951;28;19920;-94
2021/10/28 00:55:26;;;;;;;;;;;;;;;;;;5043211;28;19913;-92
2021/10/28 00:57:55;;;;;;;;;;;;;;;;;;5037866;28;19909;-92
2021/10/28 01:00:24;;;;;;;;;;;;;;;;;;5045817;28;19923;-93
2021/10/28 01:02:53;;;;;;;;;;;;;;;;;;5074680;28;19912;-92
2021/10/28 01:05:21;;;;;;;;;;;;;;;;;;5073075;28;19929;-92
2021/10/28 01:07:49;;;;;;;;;;;;;;;;;;5072057;28;19913;-91
2021/10/28 01:10:18;;;;;;;;;;;;;;;;;;5070138;28;19922;-94
2021/10/28 01:12:47;;;;;;;;;;;;;;;;;;5072469;28;19925;-93
2021/10/28 01:15:17;;;;;;;;;;;;;;;;;;5046635;28;19923;-92
2021/10/28 01:17:45;;;;;;;;;;;;;;;;;;5077858;28;19909;-91
2021/10/28 01:20:15;;;;;;;;;;;;;;;;;;5056382;28;19916;-91
2021/10/28 01:22:44;;;;;;;;;;;;;;;;;;5069622;28;19923;-93
2021/10/28 01:25:12;;;;;;;;;;;;;;;;;;5073951;28;19919;-93
2021/10/28 01:27:41;;;;;;;;;;;;;;;;;;5095559;28;19943;-92
2021/10/28 01:30:10;;;;;;;;;;;;;;;;;;5053946;28;19914;-92
2021/10/28 01:32:38;;;;;;;;;;;;;;;;;;5072091;28;19932;-93
2021/10/28 01:35:07;;;;;;;;;;;;;;;;;;5085939;28;19909;-93
2021/10/28 01:37:37;;;;;;;;;;;;;;;;;;5067392;28;19909;-92
2021/10/28 01:40:06;;;;;;;;;;;;;;;;;;5035600;28;19925;-93
2021/10/28 01:42:34;;;;;;;;;;;;;;;;;;5038760;28;19925;-92
2021/10/28 01:45:04;;;;;;;;;;;;;;;;;;5070606;28;19913;-93
2021/10/28 01:47:33;;;;;;;;;;;;;;;;;;5060943;28;19923;-92
2021/10/28 01:50:02;;;;;;;;;;;;;;;;;;5071615;28;19909;-92
2021/10/28 01:52:30;;;;;;;;;;;;;;;;;;5046596;28;19913;-93
2021/10/28 01:55:00;;;;;;;;;;;;;;;;;;5073676;28;19935;-93
2021/10/28 01:57:28;;;;;;;;;;;;;;;;;;5049300;28;19929;-93
2021/10/28 01:59:56;;;;;;;;;;;;;;;;;;5043424;28;19923;-91
2021/10/28 02:02:25;;;;;;;;;;;;;;;;;;5078492;28;19919;-92
2021/10/28 02:04:53;;;;;;;;;;;;;;;;;;5055716;28;19909;-92
2021/10/28 02:07:22;;;;;;;;;;;;;;;;;;5072110;28;19913;-93
2021/10/28 02:09:50;;;;;;;;;;;;;;;;;;5072590;28;19913;-93
2021/10/28 02:12:20;;;;;;;;;;;;;;;;;;5071253;28;19944;-93
2021/10/28 02:14:51;;;;;;;;;;;;;;;;;;5071977;28;19909;-93
2021/10/28 02:17:20;;;;;;;;;;;;;;;;;;5034661;28;19909;-93
2021/10/28 02:19:48;;;;;;;;;;;;;;;;;;5068766;28;19917;-92
2021/10/28 02:22:17;;;;;;;;;;;;;;;;;;5040709;28;19914;-93
2021/10/28 02:24:46;;;;;;;;;;;;;;;;;;5064784;28;19928;-93
2021/10/28 02:27:15;;;;;;;;;;;;;;;;;;5058975;28;19909;-92
2021/10/28 02:29:45;;;;;;;;;;;;;;;;;;5082023;28;19933;-93
2021/10/28 02:32:13;;;;;;;;;;;;;;;;;;5063755;28;19913;-93
2021/10/28 02:34:42;;;;;;;;;;;;;;;;;;5078673;28;19913;-92
2021/10/28 02:37:10;;;;;;;;;;;;;;;;;;5060580;28;19915;-93
2021/10/28 02:39:39;;;;;;;;;;;;;;;;;;5042173;28;19935;-93
2021/10/28 02:42:07;;;;;;;;;;;;;;;;;;5067508;28;19909;-93
2021/10/28 02:44:35;;;;;;;;;;;;;;;;;;5049362;28;19913;-92
2021/10/28 02:47:05;;;;;;;;;;;;;;;;;;5058029;28;19923;-93
2021/10/28 02:49:34;;;;;;;;;;;;;;;;;;5073861;28;19924;-92
2021/10/28 02:52:02;;;;;;;;;;;;;;;;;;5075695;28;19913;-92
2021/10/28 02:54:31;;;;;;;;;;;;;;;;;;5074933;28;19914;-93
2021/10/28 02:57:00;;;;;;;;;;;;;;;;;;5099141;28;19913;-91
2021/10/28 02:59:28;;;;;;;;;;;;;;;;;;5045528;28;19919;-92
2021/10/28 03:01:57;;;;;;;;;;;;;;;;;;5074101;28;19914;-92
2021/10/28 03:04:27;;;;;;;;;;;;;;;;;;5099263;28;19909;-95
2021/10/28 03:06:56;;;;;;;;;;;;;;;;;;5074928;28;19916;-92
2021/10/28 03:09:25;;;;;;;;;;;;;;;;;;5051283;28;19924;-92
2021/10/28 03:11:55;;;;;;;;;;;;;;;;;;5054234;28;19909;-93
2021/10/28 03:14:30;;;;;;;;;;;;;;;;;;5072892;28;19910;-93
2021/10/28 03:17:02;;;;;;;;;;;;;;;;;;5059757;28;19931;-92
2021/10/28 03:19:43;;;;;;;;;;;;;;;;;;5059540;28;19919;-92
2021/10/28 03:27:43;;;;;;;;;;;;;;;;;;5060667;28;19920;-91
2021/10/28 03:30:12;;;;;;;;;;;;;;;;;;5075888;28;19913;-94
2021/10/28 03:32:41;;;;;;;;;;;;;;;;;;5057474;28;19913;-92
2021/10/28 03:35:13;;;;;;;;;;;;;;;;;;5074489;28;19931;-93
2021/10/28 03:37:45;;;;;;;;;;;;;;;;;;5074736;28;19944;-93
2021/10/28 04:17:43;;;;;;;;;;;;;;;;;;6071194;23;2067361;-96
2021/10/28 04:31:18;;;;;;;;;;;;;;;;;;6132732;23;19905;-95
2021/10/28 04:33:48;;;;;;;;;;;;;;;;;;6132191;23;19949;-93
2021/10/28 04:36:16;;;;;;;;;;;;;;;;;;6132292;23;19949;-95
2021/10/28 04:38:44;;;;;;;;;;;;;;;;;;6131749;23;19948;-95
2021/10/28 04:41:13;;;;;;;;;;;;;;;;;;6131418;23;19957;-94
2021/10/28 04:43:41;;;;;;;;;;;;;;;;;;6131094;23;19927;-94
2021/10/28 04:46:10;;;;;;;;;;;;;;;;;;6130709;23;19921;-95
2021/10/28 04:48:39;;;;;;;;;;;;;;;;;;6131285;23;19925;-94
2021/10/28 04:51:08;;;;;;;;;;;;;;;;;;6130473;23;19945;-93
2021/10/28 04:53:37;;;;;;;;;;;;;;;;;;6132408;23;19952;-94
2021/10/28 04:56:06;;;;;;;;;;;;;;;;;;6131610;23;19957;-95
2021/10/28 04:58:34;;;;;;;;;;;;;;;;;;6129968;23;19957;-95
2021/10/28 05:01:02;;;;;;;;;;;;;;;;;;6125139;23;19964;-96
2021/10/28 05:03:31;;;;;;;;;;;;;;;;;;6125416;23;19949;-94
2021/10/28 05:05:59;;;;;;;;;;;;;;;;;;6126189;23;19949;-93
2021/10/28 05:08:29;;;;;;;;;;;;;;;;;;6125050;23;19949;-94
2021/10/28 05:10:57;;;;;;;;;;;;;;;;;;6125105;23;19944;-93
2021/10/28 05:13:25;;;;;;;;;;;;;;;;;;6126342;23;19944;-94
2021/10/28 05:15:54;;;;;;;;;;;;;;;;;;6125611;23;19952;-96
2021/10/28 05:18:24;;;;;;;;;;;;;;;;;;6124761;23;19964;-96
2021/10/28 05:20:53;;;;;;;;;;;;;;;;;;6126212;23;19960;-93
2021/10/28 05:23:22;;;;;;;;;;;;;;;;;;6125765;23;19956;-92
2021/10/28 05:25:52;;;;;;;;;;;;;;;;;;6125058;23;19976;-93
2021/10/28 05:31:21;;;;;;;;;;;;;;;;;;6149204;23;19905;-93
2021/10/28 05:33:49;;;;;;;;;;;;;;;;;;6101526;23;19960;-92
2021/10/28 05:36:18;;;;;;;;;;;;;;;;;;6099296;23;19948;-94
2021/10/28 05:38:47;;;;;;;;;;;;;;;;;;6099592;23;19968;-95
2021/10/28 05:41:36;;;;;;;;;;;;;;;;;;6100857;23;19915;-93
2021/10/28 05:44:07;;;;;;;;;;;;;;;;;;6100720;23;19970;-95
2021/10/28 05:46:35;;;;;;;;;;;;;;;;;;6097533;23;19965;-93
2021/10/28 05:49:05;;;;;;;;;;;;;;;;;;6098685;23;19916;-93
2021/10/28 05:51:35;;;;;;;;;;;;;;;;;;6102734;23;19949;-96
2021/10/28 05:54:06;;;;;;;;;;;;;;;;;;6099736;23;19909;-94
2021/10/28 05:56:37;;;;;;;;;;;;;;;;;;6098715;23;19912;-94
2021/10/28 05:59:07;;;;;;;;;;;;;;;;;;6095513;23;19928;-94
2021/10/28 06:01:36;;;;;;;;;;;;;;;;;;6097694;23;19915;-94
2021/10/28 06:04:06;;;;;;;;;;;;;;;;;;6097576;23;19909;-94
2021/10/28 06:06:35;;;;;;;;;;;;;;;;;;6098709;23;19949;-95
2021/10/28 06:09:03;;;;;;;;;;;;;;;;;;6100565;23;19905;-94
2021/10/28 06:11:32;;;;;;;;;;;;;;;;;;6100820;23;20007;-96
2021/10/28 06:14:01;;;;;;;;;;;;;;;;;;6102045;23;19953;-94
2021/10/28 06:16:32;;;;;;;;;;;;;;;;;;6099915;23;19919;-94
2021/10/28 06:19:01;;;;;;;;;;;;;;;;;;6100492;23;19998;-95
2021/10/28 06:21:30;;;;;;;;;;;;;;;;;;6100772;23;19944;-94
2021/10/28 06:23:58;;;;;;;;;;;;;;;;;;6100182;23;19969;-94
2021/10/28 06:26:29;;;;;;;;;;;;;;;;;;6101979;23;19949;-94
2021/10/28 06:28:57;;;;;;;;;;;;;;;;;;6099812;23;19909;-94
2021/10/28 06:31:26;;;;;;;;;;;;;;;;;;6099964;23;19972;-94
2021/10/28 06:34:00;;;;;;;;;;;;;;;;;;6101183;23;19953;-92
2021/10/28 06:36:30;;;;;;;;;;;;;;;;;;6101040;23;19957;-94
2021/10/28 06:38:58;;;;;;;;;;;;;;;;;;6099443;23;19973;-94
2021/10/28 06:41:27;;;;;;;;;;;;;;;;;;6100305;23;19949;-95
2021/10/28 06:43:59;;;;;;;;;;;;;;;;;;6100739;23;19952;-95
2021/10/28 06:46:28;;;;;;;;;;;;;;;;;;6099698;23;19969;-95
2021/10/28 06:48:58;;;;;;;;;;;;;;;;;;6099066;23;19905;-95
2021/10/28 06:51:27;;;;;;;;;;;;;;;;;;6100563;23;19969;-94
2021/10/28 06:54:05;;;;;;;;;;;;;;;;;;6100602;23;19948;-94
2021/10/28 06:56:53;;;;;;;;;;;;;;;;;;6100866;23;20158;-94
2021/10/28 07:02:20;;;;;;;;;;;;;;;;;;6099936;23;19939;-93
2021/10/28 07:04:51;;;;;;;;;;;;;;;;;;6098781;23;19952;-95
2021/10/28 07:07:22;;;;;;;;;;;;;;;;;;6099539;23;19931;-93
2021/10/28 07:10:02;;;;;;;;;;;;;;;;;;6096642;23;19927;-95
2021/10/28 07:12:43;;;;;;;;;;;;;;;;;;6099890;23;19999;-93
2021/10/28 07:15:20;;;;;;;;;;;;;;;;;;6099216;23;20133;-95
2021/10/28 07:18:03;;;;;;;;;;;;;;;;;;6099158;23;19958;-94
2021/10/28 07:29:09;;;;;;;;;;;;;;;;;;6099106;23;19915;-94
2021/10/28 07:34:28;;;;;;;;;;;;;;;;;;6100311;23;19973;-93
2021/10/28 08:05:05;;;;;;;;;;;;;;;;;;6086549;23;19924;-92
2021/10/28 08:18:50;;;;;;;;;;;;;;;;;;6096224;23;19909;-95
2021/10/28 08:21:36;;;;;;;;;;;;;;;;;;6095302;23;19953;-94
2021/10/28 08:24:13;;;;;;;;;;;;;;;;;;6097558;23;19936;-95
2021/10/28 08:29:32;;;;;;;;;;;;;;;;;;6096773;23;19915;-93
2021/10/28 08:32:01;;;;;;;;;;;;;;;;;;6116850;23;19909;-93
2021/10/28 08:34:31;;;;;;;;;;;;;;;;;;6120935;23;19912;-94
2021/10/28 08:37:06;;;;;;;;;;;;;;;;;;6120741;23;19915;-94
2021/10/28 08:39:35;;;;;;;;;;;;;;;;;;6119430;23;19924;-92
2021/10/28 08:42:06;;;;;;;;;;;;;;;;;;6119636;23;19921;-93
2021/10/28 08:44:40;;;;;;;;;;;;;;;;;;6121838;23;20295;-93
2021/10/28 08:47:09;;;;;;;;;;;;;;;;;;6119485;23;20550;-93
2021/10/28 08:49:40;;;;;;;;;;;;;;;;;;6119183;23;19931;-93
2021/10/28 08:52:26;;;;;;;;;;;;;;;;;;6120510;23;19909;-91
2021/10/28 08:55:01;;;;;;;;;;;;;;;;;;6120698;23;19920;-93
2021/10/28 09:25:39;;;;;;;;;;;;;;;;;;6115635;23;19921;-93
2021/10/28 09:28:22;;;;;;;;;;;;;;;;;;6118000;23;19921;-94
2021/10/28 09:30:56;;;;;;;;;;;;;;;;;;6120668;23;19921;-93
2021/10/28 09:33:38;;;;;;;;;;;;;;;;;;6116924;23;20092;-93
2021/10/28 09:43:33;;;;;;;;;;;;;;;;;;6116809;23;19909;-92
2021/10/28 09:45:22;;;;;;;;;;;;;;;;;;6115431;23;19921;-93
2021/10/28 09:48:04;;;;;;;;;;;;;;;;;;6114516;23;19921;-92
2021/10/28 09:50:37;;;;;;;;;;;;;;;;;;6110964;23;19921;-93
2021/10/28 09:53:10;;;;;;;;;;;;;;;;;;6110936;23;19925;-93
2021/10/28 09:58:32;;;;;;;;;;;;;;;;;;6113421;23;20259;-93
2021/10/28 10:01:01;;;;;;;;;;;;;;;;;;6111310;23;19943;-93
2021/10/28 10:03:34;;;;;;;;;;;;;;;;;;6108434;23;19921;-93
2021/10/28 10:06:03;;;;;;;;;;;;;;;;;;6106619;23;19924;-93
2021/10/28 10:08:32;;;;;;;;;;;;;;;;;;6107271;23;19927;-94
2021/10/28 10:11:00;;;;;;;;;;;;;;;;;;6106328;23;19920;-93
2021/10/28 10:13:29;;;;;;;;;;;;;;;;;;6107851;23;19928;-93
2021/10/28 10:16:00;;;;;;;;;;;;;;;;;;6104992;23;19921;-93
2021/10/28 10:18:29;;;;;;;;;;;;;;;;;;6103801;23;19921;-93
2021/10/28 10:21:02;;;;;;;;;;;;;;;;;;6098721;23;19932;-93
2021/10/28 10:23:59;;;;;;;;;;;;;;;;;;6100942;23;19921;-91
2021/10/28 10:26:53;;;;;;;;;;;;;;;;;;6099489;23;19956;-92
2021/10/28 10:29:54;;;;;;;;;;;;;;;;;;6100034;23;19921;-93
2021/10/28 11:21:45;;;;;;;;;;;;;;;;;;6094930;23;20344;-90
2021/10/28 11:30:43;;;;;;;;;;;;;;;;;;6094254;23;19932;-90
2021/10/28 12:24:09;;;;;;;;;;;;;;;;;;6096873;23;19921;-90
2021/10/28 12:44:03;;;;;;;;;;;;;;;;;;6119428;23;19929;-88
2021/10/28 12:46:57;;;;;;;;;;;;;;;;;;6095847;23;20233;-89
2021/10/28 12:49:51;;;;;;;;;;;;;;;;;;6095415;23;19921;-89
2021/10/28 12:52:38;;;;;;;;;;;;;;;;;;6096030;23;19921;-89
2021/10/28 13:06:34;;;;;;;;;;;;;;;;;;6059024;23;19925;-89
2021/10/28 18:22:48;;;;;;;;;;;;;;;;;;6004656;23;2858057;-94
2021/10/28 18:37:33;;;;;;;;;;;;;;;;;;6116830;23;19909;-93
2021/10/28 18:40:01;;;;;;;;;;;;;;;;;;6094043;23;19968;-93
2021/10/28 18:42:30;;;;;;;;;;;;;;;;;;6093642;23;19965;-94
2021/10/28 18:44:59;;;;;;;;;;;;;;;;;;6091502;23;19966;-95
2021/10/28 18:47:43;;;;;;;;;;;;;;;;;;6085016;23;19921;-96
2021/10/28 18:50:12;;;;;;;;;;;;;;;;;;6091073;23;19921;-95
2021/10/28 18:52:43;;;;;;;;;;;;;;;;;;6087538;23;19921;-94
2021/10/28 18:55:11;;;;;;;;;;;;;;;;;;6087962;23;20268;-92
2021/10/28 18:57:40;;;;;;;;;;;;;;;;;;6079144;23;19928;-95
